sensor_id;sensor_type;location;lat;lon;timestamp;temperature;humidity
53534;DHT22;39421;53.204;6.568;2022-08-04T00:01:04;24.10;99.90
53534;DHT22;39421;53.204;6.568;2022-08-04T00:03:54;24.20;99.90
53534;DHT22;39421;53.204;6.568;2022-08-04T00:06:33;24.20;99.90
53534;DHT22;39421;53.204;6.568;2022-08-04T00:09:09;24.20;99.90
53534;DHT22;39421;53.204;6.568;2022-08-04T00:11:37;24.10;99.90
53534;DHT22;39421;53.204;6.568;2022-08-04T00:14:13;24.10;99.90
53534;DHT22;39421;53.204;6.568;2022-08-04T00:16:41;24.00;99.90
53534;DHT22;39421;53.204;6.568;2022-08-04T00:19:30;24.00;99.90
53534;DHT22;39421;53.204;6.568;2022-08-04T00:22:02;23.90;99.90
53534;DHT22;39421;53.204;6.568;2022-08-04T00:24:29;23.90;99.90
53534;DHT22;39421;53.204;6.568;2022-08-04T00:26:56;23.90;99.90
53534;DHT22;39421;53.204;6.568;2022-08-04T00:29:22;23.90;99.90
53534;DHT22;39421;53.204;6.568;2022-08-04T00:31:48;23.90;99.90
53534;DHT22;39421;53.204;6.568;2022-08-04T00:34:15;23.80;99.90
53534;DHT22;39421;53.204;6.568;2022-08-04T00:36:44;23.70;99.90
53534;DHT22;39421;53.204;6.568;2022-08-04T00:39:13;23.60;99.90
53534;DHT22;39421;53.204;6.568;2022-08-04T00:50:08;23.50;99.90
53534;DHT22;39421;53.204;6.568;2022-08-04T01:00:22;23.20;99.90
53534;DHT22;39421;53.204;6.568;2022-08-04T01:14:23;23.10;99.90
53534;DHT22;39421;53.204;6.568;2022-08-04T01:16:59;23.10;99.90
53534;DHT22;39421;53.204;6.568;2022-08-04T01:30:48;23.00;99.90
53534;DHT22;39421;53.204;6.568;2022-08-04T01:33:21;23.00;99.90
53534;DHT22;39421;53.204;6.568;2022-08-04T01:35:50;23.00;99.90
53534;DHT22;39421;53.204;6.568;2022-08-04T01:38:24;22.90;99.90
53534;DHT22;39421;53.204;6.568;2022-08-04T01:40:56;22.90;99.90
53534;DHT22;39421;53.204;6.568;2022-08-04T01:43:25;22.90;99.90
53534;DHT22;39421;53.204;6.568;2022-08-04T01:45:57;22.90;99.90
53534;DHT22;39421;53.204;6.568;2022-08-04T01:48:25;22.90;99.90
53534;DHT22;39421;53.204;6.568;2022-08-04T01:50:53;22.90;99.90
53534;DHT22;39421;53.204;6.568;2022-08-04T01:53:23;23.00;99.90
53534;DHT22;39421;53.204;6.568;2022-08-04T01:55:56;23.00;99.90
53534;DHT22;39421;53.204;6.568;2022-08-04T01:58:23;22.90;99.90
53534;DHT22;39421;53.204;6.568;2022-08-04T02:01:02;22.80;99.90
53534;DHT22;39421;53.204;6.568;2022-08-04T02:03:28;22.80;99.90
53534;DHT22;39421;53.204;6.568;2022-08-04T02:11:19;22.60;99.90
53534;DHT22;39421;53.204;6.568;2022-08-04T02:16:29;22.60;99.90
53534;DHT22;39421;53.204;6.568;2022-08-04T02:21:48;22.60;99.90
53534;DHT22;39421;53.204;6.568;2022-08-04T02:24:17;22.60;99.90
53534;DHT22;39421;53.204;6.568;2022-08-04T02:26:49;22.60;99.90
53534;DHT22;39421;53.204;6.568;2022-08-04T02:32:01;22.70;99.90
53534;DHT22;39421;53.204;6.568;2022-08-04T02:34:43;22.80;99.90
53534;DHT22;39421;53.204;6.568;2022-08-04T02:37:15;22.70;99.90
53534;DHT22;39421;53.204;6.568;2022-08-04T02:39:43;22.70;99.90
53534;DHT22;39421;53.204;6.568;2022-08-04T02:42:11;22.70;99.90
53534;DHT22;39421;53.204;6.568;2022-08-04T02:44:38;22.70;99.90
53534;DHT22;39421;53.204;6.568;2022-08-04T02:47:05;22.70;99.90
53534;DHT22;39421;53.204;6.568;2022-08-04T02:49:35;22.60;99.90
53534;DHT22;39421;53.204;6.568;2022-08-04T02:52:01;22.60;99.90
53534;DHT22;39421;53.204;6.568;2022-08-04T02:54:34;22.50;99.90
53534;DHT22;39421;53.204;6.568;2022-08-04T02:57:01;22.50;99.90
53534;DHT22;39421;53.204;6.568;2022-08-04T02:59:29;22.50;99.90
53534;DHT22;39421;53.204;6.568;2022-08-04T03:02:05;22.50;99.90
53534;DHT22;39421;53.204;6.568;2022-08-04T03:44:20;23.30;99.90
53534;DHT22;39421;53.204;6.568;2022-08-04T04:09:27;23.40;99.90
53534;DHT22;39421;53.204;6.568;2022-08-04T04:21:38;23.50;99.90
53534;DHT22;39421;53.204;6.568;2022-08-04T04:45:35;23.00;99.90
53534;DHT22;39421;53.204;6.568;2022-08-04T04:48:25;22.90;99.90
53534;DHT22;39421;53.204;6.568;2022-08-04T04:53:34;22.90;99.90
53534;DHT22;39421;53.204;6.568;2022-08-04T04:56:10;22.90;99.90
53534;DHT22;39421;53.204;6.568;2022-08-04T04:58:37;22.80;99.90
53534;DHT22;39421;53.204;6.568;2022-08-04T05:01:39;22.80;99.90
53534;DHT22;39421;53.204;6.568;2022-08-04T05:04:17;22.80;99.90
53534;DHT22;39421;53.204;6.568;2022-08-04T05:10:21;22.90;99.90
53534;DHT22;39421;53.204;6.568;2022-08-04T05:15:46;23.10;99.90
53534;DHT22;39421;53.204;6.568;2022-08-04T05:18:18;23.10;99.90
53534;DHT22;39421;53.204;6.568;2022-08-04T05:20:49;23.10;99.90
53534;DHT22;39421;53.204;6.568;2022-08-04T05:23:25;23.10;99.90
53534;DHT22;39421;53.204;6.568;2022-08-04T05:25:59;23.10;99.90
53534;DHT22;39421;53.204;6.568;2022-08-04T05:28:27;23.20;99.90
53534;DHT22;39421;53.204;6.568;2022-08-04T05:31:05;23.10;99.90
53534;DHT22;39421;53.204;6.568;2022-08-04T05:34:08;23.30;99.90
53534;DHT22;39421;53.204;6.568;2022-08-04T05:36:45;23.30;99.90
53534;DHT22;39421;53.204;6.568;2022-08-04T05:39:18;23.40;99.90
53534;DHT22;39421;53.204;6.568;2022-08-04T05:41:47;23.50;99.90
53534;DHT22;39421;53.204;6.568;2022-08-04T05:44:18;23.40;99.90
53534;DHT22;39421;53.204;6.568;2022-08-04T05:46:49;23.40;99.90
53534;DHT22;39421;53.204;6.568;2022-08-04T05:49:15;23.50;99.90
53534;DHT22;39421;53.204;6.568;2022-08-04T05:51:42;23.60;99.90
53534;DHT22;39421;53.204;6.568;2022-08-04T05:54:09;23.80;99.90
53534;DHT22;39421;53.204;6.568;2022-08-04T05:56:36;23.90;99.90
53534;DHT22;39421;53.204;6.568;2022-08-04T05:59:04;24.00;99.90
53534;DHT22;39421;53.204;6.568;2022-08-04T06:01:30;24.00;99.90
53534;DHT22;39421;53.204;6.568;2022-08-04T06:03:58;24.10;99.90
53534;DHT22;39421;53.204;6.568;2022-08-04T06:06:24;24.10;99.90
53534;DHT22;39421;53.204;6.568;2022-08-04T06:08:51;24.10;99.90
53534;DHT22;39421;53.204;6.568;2022-08-04T06:11:18;24.20;99.90
53534;DHT22;39421;53.204;6.568;2022-08-04T06:13:56;24.30;99.90
53534;DHT22;39421;53.204;6.568;2022-08-04T06:16:23;24.50;99.90
53534;DHT22;39421;53.204;6.568;2022-08-04T06:18:51;24.70;99.90
53534;DHT22;39421;53.204;6.568;2022-08-04T06:21:20;24.80;99.90
53534;DHT22;39421;53.204;6.568;2022-08-04T06:23:48;24.80;99.90
53534;DHT22;39421;53.204;6.568;2022-08-04T06:26:16;24.90;99.90
53534;DHT22;39421;53.204;6.568;2022-08-04T06:28:49;25.00;99.90
53534;DHT22;39421;53.204;6.568;2022-08-04T06:31:19;25.10;99.90
53534;DHT22;39421;53.204;6.568;2022-08-04T06:34:06;25.10;99.90
53534;DHT22;39421;53.204;6.568;2022-08-04T06:36:33;25.30;99.90
53534;DHT22;39421;53.204;6.568;2022-08-04T06:39:03;25.20;99.90
53534;DHT22;39421;53.204;6.568;2022-08-04T06:41:29;25.30;99.90
53534;DHT22;39421;53.204;6.568;2022-08-04T06:44:02;25.20;99.90
53534;DHT22;39421;53.204;6.568;2022-08-04T06:46:30;25.30;99.90
53534;DHT22;39421;53.204;6.568;2022-08-04T06:48:57;25.50;99.90
53534;DHT22;39421;53.204;6.568;2022-08-04T06:51:24;25.60;99.90
53534;DHT22;39421;53.204;6.568;2022-08-04T06:53:50;25.60;99.90
53534;DHT22;39421;53.204;6.568;2022-08-04T06:56:17;25.60;99.90
53534;DHT22;39421;53.204;6.568;2022-08-04T06:58:47;25.60;99.90
53534;DHT22;39421;53.204;6.568;2022-08-04T07:01:14;25.70;99.90
53534;DHT22;39421;53.204;6.568;2022-08-04T07:03:41;25.80;99.90
53534;DHT22;39421;53.204;6.568;2022-08-04T07:06:07;25.80;99.90
53534;DHT22;39421;53.204;6.568;2022-08-04T07:08:34;25.70;99.90
53534;DHT22;39421;53.204;6.568;2022-08-04T07:11:01;25.70;99.90
53534;DHT22;39421;53.204;6.568;2022-08-04T07:13:27;25.80;99.90
53534;DHT22;39421;53.204;6.568;2022-08-04T07:15:55;25.90;99.90
53534;DHT22;39421;53.204;6.568;2022-08-04T07:18:23;26.10;99.90
53534;DHT22;39421;53.204;6.568;2022-08-04T07:20:49;26.30;99.90
53534;DHT22;39421;53.204;6.568;2022-08-04T07:23:16;26.50;99.90
53534;DHT22;39421;53.204;6.568;2022-08-04T07:25:52;26.70;99.90
53534;DHT22;39421;53.204;6.568;2022-08-04T07:28:19;26.80;99.90
53534;DHT22;39421;53.204;6.568;2022-08-04T07:30:47;26.90;99.90
53534;DHT22;39421;53.204;6.568;2022-08-04T07:33:16;27.00;99.90
53534;DHT22;39421;53.204;6.568;2022-08-04T07:35:43;27.10;99.90
53534;DHT22;39421;53.204;6.568;2022-08-04T07:38:09;27.10;99.90
53534;DHT22;39421;53.204;6.568;2022-08-04T07:40:38;27.20;99.90
53534;DHT22;39421;53.204;6.568;2022-08-04T07:43:08;27.10;99.90
53534;DHT22;39421;53.204;6.568;2022-08-04T07:45:34;27.00;99.90
53534;DHT22;39421;53.204;6.568;2022-08-04T07:48:01;26.90;99.90
53534;DHT22;39421;53.204;6.568;2022-08-04T07:50:28;27.00;99.90
53534;DHT22;39421;53.204;6.568;2022-08-04T07:52:55;27.10;99.90
53534;DHT22;39421;53.204;6.568;2022-08-04T07:55:21;27.20;99.90
53534;DHT22;39421;53.204;6.568;2022-08-04T07:57:47;27.40;99.90
53534;DHT22;39421;53.204;6.568;2022-08-04T08:00:13;27.50;99.90
53534;DHT22;39421;53.204;6.568;2022-08-04T08:02:48;27.60;99.90
53534;DHT22;39421;53.204;6.568;2022-08-04T08:05:15;27.80;99.90
53534;DHT22;39421;53.204;6.568;2022-08-04T08:07:47;27.70;99.90
53534;DHT22;39421;53.204;6.568;2022-08-04T08:10:14;27.80;99.90
53534;DHT22;39421;53.204;6.568;2022-08-04T08:12:41;27.90;99.90
53534;DHT22;39421;53.204;6.568;2022-08-04T08:15:10;27.90;99.90
53534;DHT22;39421;53.204;6.568;2022-08-04T08:17:37;28.10;99.90
53534;DHT22;39421;53.204;6.568;2022-08-04T08:20:06;28.40;99.90
53534;DHT22;39421;53.204;6.568;2022-08-04T08:22:32;28.70;99.90
53534;DHT22;39421;53.204;6.568;2022-08-04T08:24:58;28.90;99.90
53534;DHT22;39421;53.204;6.568;2022-08-04T08:27:24;29.10;99.90
53534;DHT22;39421;53.204;6.568;2022-08-04T08:29:50;29.10;99.90
53534;DHT22;39421;53.204;6.568;2022-08-04T08:32:16;29.00;99.90
53534;DHT22;39421;53.204;6.568;2022-08-04T08:34:42;28.90;99.90
53534;DHT22;39421;53.204;6.568;2022-08-04T08:45:51;29.40;99.90
53534;DHT22;39421;53.204;6.568;2022-08-04T08:51:19;29.40;99.90
53534;DHT22;39421;53.204;6.568;2022-08-04T08:54:04;29.40;99.90
53534;DHT22;39421;53.204;6.568;2022-08-04T08:59:56;29.80;99.90
53534;DHT22;39421;53.204;6.568;2022-08-04T09:02:52;29.80;99.90
53534;DHT22;39421;53.204;6.568;2022-08-04T09:05:23;29.70;99.90
53534;DHT22;39421;53.204;6.568;2022-08-04T09:10:53;29.80;99.90
53534;DHT22;39421;53.204;6.568;2022-08-04T09:13:29;29.90;99.90
53534;DHT22;39421;53.204;6.568;2022-08-04T09:21:36;30.10;99.90
53534;DHT22;39421;53.204;6.568;2022-08-04T09:27:25;30.40;99.90
53534;DHT22;39421;53.204;6.568;2022-08-04T09:35:41;30.70;99.90
53534;DHT22;39421;53.204;6.568;2022-08-04T09:38:19;30.90;99.90
53534;DHT22;39421;53.204;6.568;2022-08-04T09:46:14;31.20;99.90
53534;DHT22;39421;53.204;6.568;2022-08-04T09:51:32;31.50;99.90
53534;DHT22;39421;53.204;6.568;2022-08-04T09:54:08;31.60;99.90
53534;DHT22;39421;53.204;6.568;2022-08-04T10:00:08;31.80;99.90
53534;DHT22;39421;53.204;6.568;2022-08-04T10:02:39;31.60;99.90
53534;DHT22;39421;53.204;6.568;2022-08-04T10:05:11;31.50;99.90
53534;DHT22;39421;53.204;6.568;2022-08-04T10:11:04;31.50;99.90
53534;DHT22;39421;53.204;6.568;2022-08-04T10:13:46;31.60;99.90
53534;DHT22;39421;53.204;6.568;2022-08-04T10:19:25;31.80;99.70
53534;DHT22;39421;53.204;6.568;2022-08-04T10:27:54;32.10;97.40
53534;DHT22;39421;53.204;6.568;2022-08-04T10:30:22;31.90;97.10
53534;DHT22;39421;53.204;6.568;2022-08-04T10:32:54;31.80;97.50
53534;DHT22;39421;53.204;6.568;2022-08-04T10:35:25;31.70;97.50
53534;DHT22;39421;53.204;6.568;2022-08-04T10:38:22;31.70;97.90
53534;DHT22;39421;53.204;6.568;2022-08-04T10:40:58;31.60;98.10
53534;DHT22;39421;53.204;6.568;2022-08-04T10:46:25;31.60;98.70
53534;DHT22;39421;53.204;6.568;2022-08-04T10:49:01;31.60;98.90
53534;DHT22;39421;53.204;6.568;2022-08-04T10:51:50;31.60;99.00
53534;DHT22;39421;53.204;6.568;2022-08-04T10:57:03;31.50;99.30
53534;DHT22;39421;53.204;6.568;2022-08-04T10:59:42;31.50;99.40
53534;DHT22;39421;53.204;6.568;2022-08-04T11:02:50;31.50;99.50
53534;DHT22;39421;53.204;6.568;2022-08-04T11:05:36;31.40;99.80
53534;DHT22;39421;53.204;6.568;2022-08-04T11:08:08;31.30;99.90
53534;DHT22;39421;53.204;6.568;2022-08-04T11:10:45;31.10;99.90
53534;DHT22;39421;53.204;6.568;2022-08-04T11:13:14;31.00;99.90
53534;DHT22;39421;53.204;6.568;2022-08-04T11:15:51;30.90;99.90
53534;DHT22;39421;53.204;6.568;2022-08-04T11:18:44;31.00;99.90
53534;DHT22;39421;53.204;6.568;2022-08-04T11:21:27;31.10;99.90
53534;DHT22;39421;53.204;6.568;2022-08-04T11:24:11;31.00;99.90
53534;DHT22;39421;53.204;6.568;2022-08-04T11:26:52;30.90;99.90
53534;DHT22;39421;53.204;6.568;2022-08-04T11:29:40;30.80;99.90
53534;DHT22;39421;53.204;6.568;2022-08-04T11:32:18;30.80;99.90
53534;DHT22;39421;53.204;6.568;2022-08-04T11:34:47;30.70;99.90
53534;DHT22;39421;53.204;6.568;2022-08-04T11:37:25;30.70;99.90
53534;DHT22;39421;53.204;6.568;2022-08-04T11:39:58;30.70;99.80
53534;DHT22;39421;53.204;6.568;2022-08-04T11:42:33;30.80;99.90
53534;DHT22;39421;53.204;6.568;2022-08-04T11:45:03;30.80;99.90
53534;DHT22;39421;53.204;6.568;2022-08-04T11:47:35;30.80;99.90
53534;DHT22;39421;53.204;6.568;2022-08-04T11:50:10;30.80;99.90
53534;DHT22;39421;53.204;6.568;2022-08-04T11:52:39;30.90;99.70
53534;DHT22;39421;53.204;6.568;2022-08-04T11:55:12;31.00;99.30
53534;DHT22;39421;53.204;6.568;2022-08-04T11:57:38;31.00;99.00
53534;DHT22;39421;53.204;6.568;2022-08-04T12:00:09;30.90;99.20
53534;DHT22;39421;53.204;6.568;2022-08-04T12:05:26;30.80;98.70
53534;DHT22;39421;53.204;6.568;2022-08-04T12:13:57;30.70;98.50
53534;DHT22;39421;53.204;6.568;2022-08-04T12:16:35;30.60;97.90
53534;DHT22;39421;53.204;6.568;2022-08-04T12:19:08;30.50;97.80
53534;DHT22;39421;53.204;6.568;2022-08-04T12:24:12;30.40;97.40
53534;DHT22;39421;53.204;6.568;2022-08-04T12:26:47;30.30;97.40
53534;DHT22;39421;53.204;6.568;2022-08-04T12:29:15;30.20;97.00
53534;DHT22;39421;53.204;6.568;2022-08-04T12:31:51;30.20;97.10
53534;DHT22;39421;53.204;6.568;2022-08-04T12:34:31;30.20;97.10
53534;DHT22;39421;53.204;6.568;2022-08-04T12:37:02;30.00;97.20
53534;DHT22;39421;53.204;6.568;2022-08-04T12:39:29;29.90;97.30
53534;DHT22;39421;53.204;6.568;2022-08-04T12:44:42;29.70;97.20
53534;DHT22;39421;53.204;6.568;2022-08-04T12:47:10;29.60;97.00
53534;DHT22;39421;53.204;6.568;2022-08-04T12:49:40;29.50;97.10
53534;DHT22;39421;53.204;6.568;2022-08-04T12:52:07;29.50;97.00
53534;DHT22;39421;53.204;6.568;2022-08-04T12:54:34;29.50;96.60
53534;DHT22;39421;53.204;6.568;2022-08-04T12:57:05;29.60;97.10
53534;DHT22;39421;53.204;6.568;2022-08-04T12:59:43;29.60;96.60
53534;DHT22;39421;53.204;6.568;2022-08-04T13:02:23;29.80;96.70
53534;DHT22;39421;53.204;6.568;2022-08-04T13:04:50;29.80;96.50
53534;DHT22;39421;53.204;6.568;2022-08-04T13:07:24;29.80;96.20
53534;DHT22;39421;53.204;6.568;2022-08-04T13:09:51;29.70;96.10
53534;DHT22;39421;53.204;6.568;2022-08-04T13:12:23;29.80;96.30
53534;DHT22;39421;53.204;6.568;2022-08-04T13:14:52;29.90;96.40
53534;DHT22;39421;53.204;6.568;2022-08-04T13:17:24;29.90;96.10
53534;DHT22;39421;53.204;6.568;2022-08-04T13:19:51;29.80;96.20
53534;DHT22;39421;53.204;6.568;2022-08-04T13:22:28;29.90;96.10
53534;DHT22;39421;53.204;6.568;2022-08-04T13:24:56;29.90;96.10
53534;DHT22;39421;53.204;6.568;2022-08-04T13:27:23;29.90;95.50
53534;DHT22;39421;53.204;6.568;2022-08-04T13:29:51;29.90;95.70
53534;DHT22;39421;53.204;6.568;2022-08-04T13:32:18;29.80;96.10
53534;DHT22;39421;53.204;6.568;2022-08-04T13:34:47;29.80;95.80
53534;DHT22;39421;53.204;6.568;2022-08-04T13:37:14;29.90;96.40
53534;DHT22;39421;53.204;6.568;2022-08-04T13:39:48;29.90;96.20
53534;DHT22;39421;53.204;6.568;2022-08-04T13:42:15;30.10;96.20
53534;DHT22;39421;53.204;6.568;2022-08-04T13:44:48;30.20;96.10
53534;DHT22;39421;53.204;6.568;2022-08-04T13:47:22;30.30;96.50
53534;DHT22;39421;53.204;6.568;2022-08-04T13:50:20;30.40;96.30
53534;DHT22;39421;53.204;6.568;2022-08-04T13:52:51;30.50;96.10
53534;DHT22;39421;53.204;6.568;2022-08-04T13:55:22;30.50;95.60
53534;DHT22;39421;53.204;6.568;2022-08-04T14:00:51;30.50;95.80
53534;DHT22;39421;53.204;6.568;2022-08-04T14:03:27;30.50;95.80
53534;DHT22;39421;53.204;6.568;2022-08-04T14:08:57;30.60;95.50
53534;DHT22;39421;53.204;6.568;2022-08-04T14:11:36;30.60;95.50
53534;DHT22;39421;53.204;6.568;2022-08-04T14:14:24;30.70;95.30
53534;DHT22;39421;53.204;6.568;2022-08-04T14:17:14;30.70;94.90
53534;DHT22;39421;53.204;6.568;2022-08-04T14:19:58;30.70;95.20
53534;DHT22;39421;53.204;6.568;2022-08-04T14:24:57;30.60;96.60
53534;DHT22;39421;53.204;6.568;2022-08-04T14:27:24;30.60;97.20
53534;DHT22;39421;53.204;6.568;2022-08-04T14:29:50;30.60;97.80
53534;DHT22;39421;53.204;6.568;2022-08-04T14:32:16;30.60;98.20
53534;DHT22;39421;53.204;6.568;2022-08-04T14:34:43;30.50;98.30
53534;DHT22;39421;53.204;6.568;2022-08-04T14:37:11;30.30;98.50
53534;DHT22;39421;53.204;6.568;2022-08-04T14:39:39;30.20;98.50
53534;DHT22;39421;53.204;6.568;2022-08-04T14:42:05;30.10;98.20
53534;DHT22;39421;53.204;6.568;2022-08-04T14:44:51;29.90;98.00
53534;DHT22;39421;53.204;6.568;2022-08-04T14:47:17;29.80;98.20
53534;DHT22;39421;53.204;6.568;2022-08-04T14:49:53;29.80;98.20
53534;DHT22;39421;53.204;6.568;2022-08-04T14:52:23;29.70;98.50
53534;DHT22;39421;53.204;6.568;2022-08-04T14:54:52;29.60;98.50
53534;DHT22;39421;53.204;6.568;2022-08-04T14:57:17;29.60;99.00
53534;DHT22;39421;53.204;6.568;2022-08-04T14:59:45;29.60;99.40
53534;DHT22;39421;53.204;6.568;2022-08-04T15:02:13;29.50;99.50
53534;DHT22;39421;53.204;6.568;2022-08-04T15:04:41;29.50;99.80
53534;DHT22;39421;53.204;6.568;2022-08-04T15:07:08;29.40;99.50
53534;DHT22;39421;53.204;6.568;2022-08-04T15:09:34;29.40;99.00
53534;DHT22;39421;53.204;6.568;2022-08-04T15:12:01;29.30;98.80
53534;DHT22;39421;53.204;6.568;2022-08-04T15:14:29;29.10;98.60
53534;DHT22;39421;53.204;6.568;2022-08-04T15:16:55;28.90;98.80
53534;DHT22;39421;53.204;6.568;2022-08-04T15:19:21;28.90;99.20
53534;DHT22;39421;53.204;6.568;2022-08-04T15:21:48;28.80;99.30
53534;DHT22;39421;53.204;6.568;2022-08-04T15:24:14;28.80;99.20
53534;DHT22;39421;53.204;6.568;2022-08-04T15:26:48;28.80;99.60
53534;DHT22;39421;53.204;6.568;2022-08-04T15:32:02;28.80;99.10
53534;DHT22;39421;53.204;6.568;2022-08-04T15:34:46;28.80;99.30
53534;DHT22;39421;53.204;6.568;2022-08-04T15:37:17;28.90;99.40
53534;DHT22;39421;53.204;6.568;2022-08-04T15:39:51;29.00;98.40
53534;DHT22;39421;53.204;6.568;2022-08-04T15:45:24;28.80;98.40
53534;DHT22;39421;53.204;6.568;2022-08-04T15:53:32;28.80;98.00
53534;DHT22;39421;53.204;6.568;2022-08-04T15:58:54;28.70;98.90
53534;DHT22;39421;53.204;6.568;2022-08-04T16:01:21;28.60;99.40
53534;DHT22;39421;53.204;6.568;2022-08-04T16:03:49;28.60;99.90
53534;DHT22;39421;53.204;6.568;2022-08-04T16:21:53;28.60;98.30
53534;DHT22;39421;53.204;6.568;2022-08-04T16:24:35;28.60;98.50
53534;DHT22;39421;53.204;6.568;2022-08-04T16:27:11;28.60;98.30
53534;DHT22;39421;53.204;6.568;2022-08-04T16:29:45;28.50;98.50
53534;DHT22;39421;53.204;6.568;2022-08-04T16:32:19;28.50;98.10
53534;DHT22;39421;53.204;6.568;2022-08-04T16:34:54;28.50;98.50
53534;DHT22;39421;53.204;6.568;2022-08-04T16:37:23;28.40;98.20
53534;DHT22;39421;53.204;6.568;2022-08-04T16:39:49;28.40;98.40
53534;DHT22;39421;53.204;6.568;2022-08-04T16:42:35;28.40;98.80
53534;DHT22;39421;53.204;6.568;2022-08-04T16:50:21;28.60;99.10
53534;DHT22;39421;53.204;6.568;2022-08-04T16:52:54;28.60;98.40
53534;DHT22;39421;53.204;6.568;2022-08-04T16:55:21;28.60;98.30
53534;DHT22;39421;53.204;6.568;2022-08-04T16:57:55;28.50;97.90
53534;DHT22;39421;53.204;6.568;2022-08-04T17:00:36;28.40;98.60
53534;DHT22;39421;53.204;6.568;2022-08-04T17:03:03;28.40;97.70
53534;DHT22;39421;53.204;6.568;2022-08-04T17:05:30;28.40;98.10
53534;DHT22;39421;53.204;6.568;2022-08-04T17:07:58;28.40;97.90
53534;DHT22;39421;53.204;6.568;2022-08-04T17:10:37;28.30;97.30
53534;DHT22;39421;53.204;6.568;2022-08-04T17:13:23;28.20;98.50
53534;DHT22;39421;53.204;6.568;2022-08-04T17:15:51;28.20;97.90
53534;DHT22;39421;53.204;6.568;2022-08-04T17:18:25;28.10;97.50
53534;DHT22;39421;53.204;6.568;2022-08-04T17:20:53;28.00;97.50
53534;DHT22;39421;53.204;6.568;2022-08-04T17:26:00;28.00;96.70
53534;DHT22;39421;53.204;6.568;2022-08-04T17:28:26;28.00;97.10
53534;DHT22;39421;53.204;6.568;2022-08-04T17:30:54;28.00;97.20
53534;DHT22;39421;53.204;6.568;2022-08-04T17:33:20;27.90;97.20
53534;DHT22;39421;53.204;6.568;2022-08-04T17:35:47;27.90;97.40
53534;DHT22;39421;53.204;6.568;2022-08-04T17:38:13;27.80;97.10
53534;DHT22;39421;53.204;6.568;2022-08-04T17:41:10;27.80;96.50
53534;DHT22;39421;53.204;6.568;2022-08-04T17:46:36;27.60;97.80
53534;DHT22;39421;53.204;6.568;2022-08-04T17:54:33;27.50;97.30
53534;DHT22;39421;53.204;6.568;2022-08-04T17:57:08;27.50;97.50
53534;DHT22;39421;53.204;6.568;2022-08-04T17:59:44;27.50;98.00
53534;DHT22;39421;53.204;6.568;2022-08-04T18:02:11;27.50;97.60
53534;DHT22;39421;53.204;6.568;2022-08-04T18:12:33;27.30;98.20
53534;DHT22;39421;53.204;6.568;2022-08-04T18:15:06;27.20;98.10
53534;DHT22;39421;53.204;6.568;2022-08-04T18:17:34;27.20;98.40
53534;DHT22;39421;53.204;6.568;2022-08-04T18:20:06;27.10;98.70
53534;DHT22;39421;53.204;6.568;2022-08-04T18:22:32;27.10;98.60
53534;DHT22;39421;53.204;6.568;2022-08-04T18:24:58;27.10;98.10
53534;DHT22;39421;53.204;6.568;2022-08-04T18:27:26;26.90;98.70
53534;DHT22;39421;53.204;6.568;2022-08-04T18:29:52;26.80;98.50
53534;DHT22;39421;53.204;6.568;2022-08-04T18:32:19;26.70;98.70
53534;DHT22;39421;53.204;6.568;2022-08-04T18:34:46;26.60;99.10
53534;DHT22;39421;53.204;6.568;2022-08-04T18:37:12;26.60;99.30
53534;DHT22;39421;53.204;6.568;2022-08-04T18:39:38;26.60;99.20
53534;DHT22;39421;53.204;6.568;2022-08-04T18:42:03;26.60;98.50
53534;DHT22;39421;53.204;6.568;2022-08-04T18:44:30;26.50;99.00
53534;DHT22;39421;53.204;6.568;2022-08-04T18:46:56;26.50;98.70
53534;DHT22;39421;53.204;6.568;2022-08-04T18:49:22;26.40;99.00
53534;DHT22;39421;53.204;6.568;2022-08-04T18:51:55;26.40;98.60
53534;DHT22;39421;53.204;6.568;2022-08-04T18:54:21;26.30;98.90
53534;DHT22;39421;53.204;6.568;2022-08-04T18:56:52;26.20;99.20
53534;DHT22;39421;53.204;6.568;2022-08-04T18:59:19;26.20;99.20
53534;DHT22;39421;53.204;6.568;2022-08-04T19:01:45;26.20;98.80
53534;DHT22;39421;53.204;6.568;2022-08-04T19:04:11;26.10;98.90
53534;DHT22;39421;53.204;6.568;2022-08-04T19:06:37;26.00;99.30
53534;DHT22;39421;53.204;6.568;2022-08-04T19:09:04;25.90;99.10
53534;DHT22;39421;53.204;6.568;2022-08-04T19:11:30;25.90;99.80
53534;DHT22;39421;53.204;6.568;2022-08-04T19:14:01;25.90;99.40
53534;DHT22;39421;53.204;6.568;2022-08-04T19:16:28;25.90;99.70
53534;DHT22;39421;53.204;6.568;2022-08-04T19:18:57;25.90;99.70
53534;DHT22;39421;53.204;6.568;2022-08-04T19:21:27;25.80;99.80
53534;DHT22;39421;53.204;6.568;2022-08-04T19:23:53;25.80;99.70
53534;DHT22;39421;53.204;6.568;2022-08-04T19:26:20;25.70;99.60
53534;DHT22;39421;53.204;6.568;2022-08-04T19:28:47;25.70;99.80
53534;DHT22;39421;53.204;6.568;2022-08-04T19:31:13;25.80;99.70
53534;DHT22;39421;53.204;6.568;2022-08-04T19:33:39;25.70;99.90
53534;DHT22;39421;53.204;6.568;2022-08-04T19:36:06;25.70;99.60
53534;DHT22;39421;53.204;6.568;2022-08-04T19:38:32;25.70;99.50
53534;DHT22;39421;53.204;6.568;2022-08-04T19:40:59;25.70;99.70
53534;DHT22;39421;53.204;6.568;2022-08-04T19:43:26;25.70;99.40
53534;DHT22;39421;53.204;6.568;2022-08-04T19:45:52;25.70;99.60
53534;DHT22;39421;53.204;6.568;2022-08-04T19:48:18;25.60;99.20
53534;DHT22;39421;53.204;6.568;2022-08-04T19:50:44;25.60;99.20
53534;DHT22;39421;53.204;6.568;2022-08-04T19:53:10;25.60;99.40
53534;DHT22;39421;53.204;6.568;2022-08-04T19:55:35;25.60;99.50
53534;DHT22;39421;53.204;6.568;2022-08-04T19:58:03;25.70;99.50
53534;DHT22;39421;53.204;6.568;2022-08-04T20:00:29;25.80;99.00
53534;DHT22;39421;53.204;6.568;2022-08-04T20:02:55;25.90;98.80
53534;DHT22;39421;53.204;6.568;2022-08-04T20:05:21;25.90;98.60
53534;DHT22;39421;53.204;6.568;2022-08-04T20:07:47;25.90;98.60
53534;DHT22;39421;53.204;6.568;2022-08-04T20:10:13;25.90;98.60
53534;DHT22;39421;53.204;6.568;2022-08-04T20:12:38;25.90;98.70
53534;DHT22;39421;53.204;6.568;2022-08-04T20:15:05;25.90;98.50
53534;DHT22;39421;53.204;6.568;2022-08-04T20:17:31;25.80;98.80
53534;DHT22;39421;53.204;6.568;2022-08-04T20:19:57;25.80;99.00
53534;DHT22;39421;53.204;6.568;2022-08-04T20:22:22;25.80;98.90
53534;DHT22;39421;53.204;6.568;2022-08-04T20:24:49;25.70;99.00
53534;DHT22;39421;53.204;6.568;2022-08-04T20:27:15;25.70;99.00
53534;DHT22;39421;53.204;6.568;2022-08-04T20:29:43;25.60;99.20
53534;DHT22;39421;53.204;6.568;2022-08-04T20:32:09;25.60;99.10
53534;DHT22;39421;53.204;6.568;2022-08-04T20:34:34;25.50;99.10
53534;DHT22;39421;53.204;6.568;2022-08-04T20:37:00;25.40;99.40
53534;DHT22;39421;53.204;6.568;2022-08-04T20:39:26;25.20;99.40
53534;DHT22;39421;53.204;6.568;2022-08-04T20:41:51;25.10;99.90
53534;DHT22;39421;53.204;6.568;2022-08-04T20:44:17;25.00;99.90
53534;DHT22;39421;53.204;6.568;2022-08-04T20:46:43;25.00;99.90